Aleppo, Pennsylvania
Current Conditions -  °F | °C
As of 9:53 AM on Friday 19 Dec 2014 (Local Time) from KHLG Reporting Station
Overcast Overcast  
Wind Chill: -6°   Ceiling: 1000
Heat Index: -2°   Visibility: 7mi
Dew Point: -5°   Wind: 6mph
Humidity: 81%   Direction: 260°W
Pressure: 30.22"   Gusts: NA
Location:  39.82°N, 80.45°W
Report Text: KHLG 191453Z 26005KT 7SM OVC010 M02/M05 A3022 RMK AO2 SLP250 T10221050 51011
Loading
Personal Weather Stations






























Interactive Weather Map New forecast layout! Learn more

10-Day Weather Forecast

Advertisements
Track Severe Weather on mobile